Time;durP1;ratioP1;P1;durP2;ratioP2;P2;SDS_P1;SDS_P2;PMS_P1;PMS_P2;Temp;Humidity;BMP_temperature;BMP_pressure;BME280_temperature;BME280_humidity;BME280_pressure;Samples;Min_cycle;Max_cycle;Signal;HPM_P1;HPM_P2
2022/01/13 00:02:19;;;;;;;98.22;23.02;;;;;;;1.50;98.25;104172.00;5081563;28;20030;-76
2022/01/13 00:04:46;;;;;;;85.22;22.20;;;;;;;1.50;97.89;104166.88;5084371;28;20055;-76
2022/01/13 00:07:12;;;;;;;106.53;24.05;;;;;;;1.51;98.23;104175.53;5075301;28;20028;-76
2022/01/13 00:09:37;;;;;;;80.80;22.20;;;;;;;1.52;98.49;104180.84;5083914;28;20111;-76
2022/01/13 00:12:03;;;;;;;101.60;23.98;;;;;;;1.53;98.28;104185.22;5078281;28;20255;-76
2022/01/13 00:24:46;;;;;;;88.40;22.88;;;;;;;1.52;98.55;104183.41;5074042;28;20066;-76
2022/01/13 00:27:13;;;;;;;91.13;22.33;;;;;;;1.52;98.20;104185.97;5078644;28;20019;-75
2022/01/13 00:29:42;;;;;;;80.55;21.83;;;;;;;1.49;97.95;104188.19;5083003;28;20009;-76
2022/01/13 00:32:09;;;;;;;76.20;21.42;;;;;;;1.47;98.46;104184.50;5073099;28;20070;-76
2022/01/13 00:34:34;;;;;;;79.72;21.60;;;;;;;1.49;98.02;104189.84;5078902;28;20163;-76
2022/01/13 00:36:59;;;;;;;77.65;21.33;;;;;;;1.50;98.22;104190.00;5078236;28;20305;-75
2022/01/13 00:39:25;;;;;;;86.25;23.13;;;;;;;1.47;98.67;104183.63;5080041;28;20279;-76
2022/01/13 00:41:51;;;;;;;93.00;22.70;;;;;;;1.48;98.64;104183.78;5080500;28;20028;-76
2022/01/13 00:44:20;;;;;;;98.32;22.60;;;;;;;1.48;98.19;104176.06;5083265;28;20024;-76
2022/01/13 00:46:48;;;;;;;86.20;22.75;;;;;;;1.49;98.41;104179.56;5083342;28;20233;-77
2022/01/13 00:49:14;;;;;;;82.80;22.92;;;;;;;1.49;98.33;104174.41;5080583;28;20039;-77
2022/01/13 00:51:40;;;;;;;78.95;22.13;;;;;;;1.48;98.43;104168.38;5074686;28;20021;-77
2022/01/13 00:54:08;;;;;;;93.13;23.00;;;;;;;1.48;98.33;104172.59;5077885;28;20038;-77
2022/01/13 00:56:34;;;;;;;87.22;23.27;;;;;;;1.47;98.92;104170.75;5076816;28;20032;-77
2022/01/13 00:59:03;;;;;;;79.82;21.38;;;;;;;1.47;98.55;104166.53;5083439;28;20275;-77
2022/01/13 01:01:29;;;;;;;88.65;23.60;;;;;;;1.47;98.31;104165.63;5071264;28;20023;-77
2022/01/13 01:03:54;;;;;;;86.13;21.65;;;;;;;1.46;98.74;104156.97;5083067;28;20020;-77
2022/01/13 01:06:20;;;;;;;79.28;21.83;;;;;;;1.44;98.77;104163.63;5081196;28;20036;-77
2022/01/13 01:08:46;;;;;;;87.32;22.58;;;;;;;1.44;98.54;104160.16;5079589;28;20047;-77
2022/01/13 01:11:11;;;;;;;79.00;20.80;;;;;;;1.42;98.48;104162.53;5075079;28;20126;-77
2022/01/13 01:13:38;;;;;;;72.10;19.30;;;;;;;1.40;98.51;104161.44;5081155;28;20326;-77
2022/01/13 01:16:07;;;;;;;75.93;20.52;;;;;;;1.39;98.12;104160.53;5078952;28;20055;-77
2022/01/13 01:23:55;;;;;;;74.90;19.90;;;;;;;1.30;97.95;104159.44;5078088;28;20024;-77
2022/01/13 01:29:23;;;;;;;64.35;18.23;;;;;;;1.26;97.87;104174.34;5077604;28;20020;-77
2022/01/13 01:31:53;;;;;;;79.60;20.27;;;;;;;1.24;98.35;104169.03;5078790;28;20174;-77
2022/01/13 01:36:46;;;;;;;77.75;19.73;;;;;;;1.22;98.47;104160.25;5079957;28;20096;-77
2022/01/13 01:39:12;;;;;;;65.35;18.75;;;;;;;1.24;98.46;104163.88;5075044;28;20025;-77
2022/01/13 01:41:41;;;;;;;76.20;20.30;;;;;;;1.26;98.35;104161.50;5079827;28;20039;-77
2022/01/13 01:44:15;;;;;;;64.82;18.85;;;;;;;1.27;97.87;104165.91;5081797;28;20016;-77
2022/01/13 01:46:44;;;;;;;70.90;19.25;;;;;;;1.26;98.30;104156.34;5081594;28;20055;-77
2022/01/13 01:49:19;;;;;;;83.90;19.02;;;;;;;1.25;98.33;104154.56;5081303;28;20051;-77
2022/01/13 01:51:46;;;;;;;73.85;18.92;;;;;;;1.21;98.20;104148.13;5082547;28;20031;-77
2022/01/13 01:54:12;;;;;;;71.85;18.60;;;;;;;1.24;98.10;104157.84;5074816;28;20073;-77
2022/01/13 01:56:39;;;;;;;63.03;18.33;;;;;;;1.23;98.55;104150.88;5076007;28;20016;-77
2022/01/13 01:59:06;;;;;;;65.43;17.95;;;;;;;1.23;98.93;104156.91;5075037;28;20051;-77
2022/01/13 02:01:31;;;;;;;63.28;18.42;;;;;;;1.24;98.44;104147.56;5075302;28;20023;-77
2022/01/13 02:03:56;;;;;;;59.63;17.08;;;;;;;1.21;97.73;104151.59;5073361;28;20060;-77
2022/01/13 02:06:22;;;;;;;54.83;16.17;;;;;;;1.20;97.87;104152.38;5077435;28;20259;-77
2022/01/13 02:08:47;;;;;;;58.42;18.23;;;;;;;1.19;97.68;104150.53;5080143;28;20021;-77
2022/01/13 02:11:14;;;;;;;57.10;17.10;;;;;;;1.18;98.28;104153.81;5079300;28;20286;-77
2022/01/13 02:13:46;;;;;;;63.70;16.58;;;;;;;1.15;97.52;104148.34;5083140;28;20075;-77
2022/01/13 02:16:36;;;;;;;62.53;17.25;;;;;;;1.15;97.98;104148.34;5072159;28;20020;-77
2022/01/13 02:18:58;;;;;;;58.00;15.68;;;;;;;1.12;97.44;104154.78;5079858;28;20043;-77
2022/01/13 02:21:25;;;;;;;62.60;17.15;;;;;;;1.09;98.20;104157.00;5081193;28;20170;-77
2022/01/13 02:23:51;;;;;;;55.00;17.35;;;;;;;1.09;98.59;104163.03;5074691;28;20025;-77
2022/01/13 02:26:16;;;;;;;63.03;16.35;;;;;;;1.11;98.12;104160.66;5068401;28;20043;-77
2022/01/13 02:28:43;;;;;;;53.10;16.92;;;;;;;1.12;98.21;104173.66;5076880;28;20020;-77
2022/01/13 02:31:08;;;;;;;59.13;16.63;;;;;;;1.12;98.65;104165.97;5084475;28;20027;-77
2022/01/13 02:33:35;;;;;;;63.03;16.88;;;;;;;1.15;98.82;104162.84;5073859;28;20048;-77
2022/01/13 02:36:01;;;;;;;67.25;17.63;;;;;;;1.15;98.43;104165.41;5081742;28;20221;-77
2022/01/13 02:38:26;;;;;;;64.75;16.42;;;;;;;1.15;98.43;104153.47;5074427;28;20283;-77
2022/01/13 02:40:55;;;;;;;58.38;15.98;;;;;;;1.15;97.67;104147.44;5075772;28;20251;-77
2022/01/13 02:43:22;;;;;;;63.22;17.13;;;;;;;1.15;97.96;104157.72;5084944;28;20019;-77
2022/01/13 02:46:04;;;;;;;61.42;16.08;;;;;;;1.14;98.47;104155.88;5085202;28;20027;-77
2022/01/13 02:48:30;;;;;;;59.65;16.50;;;;;;;1.14;98.57;104154.19;5077335;28;20240;-77
2022/01/13 02:50:57;;;;;;;54.90;16.08;;;;;;;1.14;98.72;104161.91;5085227;28;20020;-77
2022/01/13 02:53:23;;;;;;;55.65;15.27;;;;;;;1.16;98.63;104164.66;5075194;28;20025;-77
2022/01/13 02:55:50;;;;;;;56.00;16.13;;;;;;;1.15;98.46;104160.28;5081053;28;20036;-77
2022/01/13 02:58:16;;;;;;;62.35;15.60;;;;;;;1.13;98.67;104157.53;5074265;28;20028;-77
2022/01/13 03:00:42;;;;;;;51.80;15.07;;;;;;;1.15;98.52;104157.72;5081955;28;20028;-77
2022/01/13 03:03:08;;;;;;;53.53;15.23;;;;;;;1.12;98.16;104155.69;5080899;28;20151;-77
2022/01/13 03:05:37;;;;;;;53.70;15.60;;;;;;;1.13;98.73;104157.53;5084397;28;20021;-77
2022/01/13 03:08:03;;;;;;;;;;;;;;;1.17;98.01;104157.16;5079501;28;20005;-77
2022/01/13 03:10:28;;;;;;;55.28;14.55;;;;;;;1.13;98.46;104147.25;5081571;28;19910;-77
2022/01/13 03:12:55;;;;;;;51.63;15.57;;;;;;;1.14;98.91;104150.72;5084757;28;20259;-78
2022/01/13 03:15:21;;;;;;;60.00;17.05;;;;;;;1.14;98.29;104141.34;5084552;28;20255;-77
2022/01/13 03:17:46;;;;;;;55.47;15.52;;;;;;;1.14;98.58;104138.78;5083809;28;20016;-77
2022/01/13 03:20:11;;;;;;;52.85;15.98;;;;;;;1.15;98.93;104139.72;5080229;28;20297;-78
2022/01/13 03:22:37;;;;;;;48.67;15.07;;;;;;;1.16;98.83;104147.59;5077930;28;20016;-78
2022/01/13 03:25:03;;;;;;;53.63;16.15;;;;;;;1.16;98.70;104150.19;5083187;28;20085;-78
2022/01/13 03:27:34;;;;;;;51.90;16.67;;;;;;;1.16;99.14;104147.59;5079928;28;20032;-77
2022/01/13 03:30:02;;;;;;;59.92;16.15;;;;;;;1.18;98.36;104142.66;5074880;28;20020;-77
2022/01/13 03:32:27;;;;;;;68.90;16.85;;;;;;;1.19;98.45;104142.81;5082629;28;20080;-78
2022/01/13 03:34:53;;;;;;;59.13;15.95;;;;;;;1.18;98.98;104143.56;5080635;28;20028;-77
2022/01/13 03:37:18;;;;;;;53.75;15.98;;;;;;;1.18;97.98;104140.06;5080709;28;20024;-77
2022/01/13 03:39:43;;;;;;;56.95;16.83;;;;;;;1.17;98.86;104131.47;5078920;28;20016;-77
2022/01/13 03:42:08;;;;;;;66.90;18.23;;;;;;;1.17;98.77;104128.91;5076850;28;20076;-78
2022/01/13 03:44:34;;;;;;;69.90;17.00;;;;;;;1.16;98.49;104129.63;5085762;28;20017;-77
2022/01/13 03:47:02;;;;;;;68.72;16.98;;;;;;;1.15;98.17;104138.06;5076294;28;20032;-77
2022/01/13 03:49:27;;;;;;;75.95;17.80;;;;;;;1.15;98.42;104134.59;5084191;28;20036;-77
2022/01/13 03:51:55;;;;;;;75.95;16.85;;;;;;;1.14;99.20;104133.66;5079828;28;20028;-77
2022/01/13 03:54:32;;;;;;;67.55;17.92;;;;;;;1.15;98.87;104127.78;5074885;28;20025;-77
2022/01/13 03:57:10;;;;;;;63.45;17.83;;;;;;;1.16;98.69;104133.81;5076232;28;20020;-78
2022/01/13 04:00:39;;;;;;;78.20;18.15;;;;;;;1.17;98.61;104128.91;5076671;28;20282;-77
2022/01/13 04:03:04;;;;;;;67.00;17.63;;;;;;;1.16;98.63;104128.69;5080333;28;20027;-77
2022/01/13 04:05:29;;;;;;;71.05;19.60;;;;;;;1.16;98.93;104131.25;5084466;28;20016;-77
2022/01/13 04:07:56;;;;;;;77.75;18.17;;;;;;;1.18;98.44;104127.22;5079181;28;20099;-77
2022/01/13 04:10:46;;;;;;;79.43;19.52;;;;;;;1.16;99.05;104124.50;5082578;28;20055;-77
2022/01/13 04:13:22;;;;;;;75.85;20.08;;;;;;;1.14;98.64;104123.38;5083267;28;20271;-77
2022/01/13 04:15:49;;;;;;;83.55;19.60;;;;;;;1.14;98.85;104125.94;5080743;28;20259;-77
2022/01/13 04:18:14;;;;;;;70.90;18.30;;;;;;;1.14;98.56;104120.81;5081028;28;20016;-78
2022/01/13 04:20:39;;;;;;;83.57;20.42;;;;;;;1.13;99.34;104119.00;5083752;28;20026;-77
2022/01/13 04:23:05;;;;;;;80.60;20.10;;;;;;;1.13;98.59;104123.22;5080801;28;20062;-77
2022/01/13 04:25:32;;;;;;;79.47;20.35;;;;;;;1.12;98.66;104116.25;5072111;28;20301;-78
2022/01/13 04:28:02;;;;;;;90.47;19.92;;;;;;;1.12;98.46;104127.44;5077289;28;20012;-78
2022/01/13 04:30:45;;;;;;;96.82;21.65;;;;;;;1.10;98.21;104131.50;5079656;28;20262;-77
2022/01/13 04:33:12;;;;;;;85.88;20.27;;;;;;;1.09;98.95;104127.09;5079980;28;20024;-77
2022/01/13 04:35:38;;;;;;;88.88;21.13;;;;;;;1.08;98.45;104122.69;5077053;28;20028;-77
2022/01/13 04:38:03;;;;;;;84.43;20.23;;;;;;;1.08;99.08;104114.97;5080429;28;20245;-78
2022/01/13 04:40:29;;;;;;;84.75;21.58;;;;;;;1.09;98.83;104111.69;5076704;28;20012;-77
2022/01/13 04:42:55;;;;;;;78.25;21.17;;;;;;;1.07;99.20;104113.13;5081897;28;20016;-78
2022/01/13 04:45:23;;;;;;;84.78;20.45;;;;;;;1.07;98.60;104114.81;5082742;28;20024;-77
2022/01/13 04:47:52;;;;;;;78.95;20.80;;;;;;;1.05;99.02;104114.63;5082033;28;20024;-77
2022/01/13 04:50:17;;;;;;;;;;;;;;;1.10;99.15;104110.03;5070697;28;20398;-77
2022/01/13 04:52:43;;;;;;;81.53;19.73;;;;;;;1.08;98.95;104106.38;5082821;28;20166;-78
2022/01/13 04:55:11;;;;;;;88.38;22.48;;;;;;;1.08;98.83;104109.84;5077425;28;20055;-78
2022/01/13 04:57:36;;;;;;;81.93;20.15;;;;;;;1.11;98.93;104111.84;5076555;28;20024;-78
2022/01/13 05:00:08;;;;;;;88.95;22.52;;;;;;;1.11;99.01;104106.72;5075728;28;20152;-77
2022/01/13 05:02:33;;;;;;;99.28;22.63;;;;;;;1.11;98.98;104109.28;5072290;28;20017;-77
2022/01/13 05:04:58;;;;;;;89.57;20.88;;;;;;;1.09;99.34;104103.97;5083275;28;20159;-77
2022/01/13 05:07:24;;;;;;;101.32;21.90;;;;;;;1.09;99.49;104111.69;5083026;28;20107;-78
2022/01/13 05:09:49;;;;;;;102.15;21.63;;;;;;;1.07;98.81;104115.72;5080943;28;20028;-78
2022/01/13 05:12:14;;;;;;;81.32;20.40;;;;;;;1.03;99.02;104108.41;5079799;28;20020;-78
2022/01/13 05:14:40;;;;;;;70.47;18.40;;;;;;;1.02;98.98;104114.28;5082677;28;20087;-78
2022/01/13 05:17:33;;;;;;;84.28;19.13;;;;;;;0.99;98.58;104116.50;5083201;28;20044;-77
2022/01/13 05:20:10;;;;;;;82.88;18.95;;;;;;;0.99;98.84;104119.06;5063714;28;20321;-77
2022/01/13 05:22:36;;;;;;;97.15;19.80;;;;;;;1.00;99.22;104126.00;5078853;28;20310;-77
2022/01/13 05:25:01;;;;;;;85.72;20.35;;;;;;;1.00;98.64;104126.00;5082381;28;20115;-78
2022/01/13 05:27:27;;;;;;;87.15;20.15;;;;;;;0.99;99.18;104114.84;5077667;28;20039;-77
2022/01/13 05:29:52;;;;;;;84.95;19.08;;;;;;;1.00;99.37;104118.31;5080395;28;20032;-77
2022/01/13 05:32:17;;;;;;;97.55;21.02;;;;;;;1.01;98.96;104112.44;5080653;28;20020;-78
2022/01/13 05:34:42;;;;;;;101.55;19.90;;;;;;;1.01;98.60;104120.16;5082584;28;20087;-77
2022/01/13 05:37:08;;;;;;;93.82;20.30;;;;;;;0.99;98.94;104112.28;5082907;28;20021;-77
2022/01/13 05:39:33;;;;;;;104.72;21.23;;;;;;;0.99;99.74;104108.81;5074996;28;20216;-78
2022/01/13 05:41:58;;;;;;;104.28;20.75;;;;;;;0.97;99.44;104110.25;5081686;28;20040;-77
2022/01/13 05:44:24;;;;;;;98.05;22.02;;;;;;;0.97;99.34;104115.38;5081190;28;20017;-77
2022/01/13 05:46:49;;;;;;;98.55;21.42;;;;;;;0.99;99.45;104119.06;5082877;28;20024;-77
2022/01/13 05:49:14;;;;;;;97.38;22.08;;;;;;;1.02;99.83;104116.84;5080545;28;20016;-77
2022/01/13 05:51:39;;;;;;;98.65;20.83;;;;;;;1.03;99.31;104122.16;5085805;28;20274;-77
2022/01/13 05:54:05;;;;;;;99.85;21.05;;;;;;;1.04;99.05;104121.44;5077891;28;20164;-77
2022/01/13 05:56:30;;;;;;;95.97;21.15;;;;;;;1.01;98.73;104123.66;5079794;28;21376;-78
2022/01/13 05:58:55;;;;;;;99.72;20.60;;;;;;;0.97;99.34;104111.19;5076894;28;20103;-78
2022/01/13 06:01:21;;;;;;;118.63;21.55;;;;;;;0.95;98.87;104109.19;5078999;28;20180;-77
2022/01/13 06:03:46;;;;;;;119.45;21.80;;;;;;;0.94;99.39;104115.03;5079972;28;20278;-78
2022/01/13 06:06:11;;;;;;;97.60;21.90;;;;;;;0.92;98.82;104113.97;5078624;28;20028;-78
2022/01/13 06:08:36;;;;;;;129.77;22.17;;;;;;;0.92;98.97;104117.44;5080060;28;20086;-77
2022/01/13 06:11:02;;;;;;;107.18;22.58;;;;;;;0.93;99.74;104113.19;5085602;28;20115;-77
2022/01/13 06:13:27;;;;;;;119.80;22.55;;;;;;;0.93;99.79;104111.56;5084409;28;20036;-78
2022/01/13 06:15:52;;;;;;;115.93;23.27;;;;;;;0.95;99.52;104114.31;5085898;28;20016;-77
2022/01/13 06:18:18;;;;;;;96.97;22.38;;;;;;;0.96;99.70;104111.91;5084537;28;20209;-77
2022/01/13 06:20:43;;;;;;;114.90;23.77;;;;;;;1.00;99.58;104115.75;5084528;28;20025;-77
2022/01/13 06:23:11;;;;;;;96.93;22.05;;;;;;;0.99;100.00;104108.81;5078002;28;20020;-77
2022/01/13 06:25:37;;;;;;;111.85;22.50;;;;;;;1.01;99.65;104102.19;5078558;28;20263;-77
2022/01/13 06:28:04;;;;;;;101.78;22.98;;;;;;;1.01;99.38;104102.19;5083929;28;20092;-77
2022/01/13 06:30:30;;;;;;;91.40;21.80;;;;;;;1.01;99.55;104102.19;5079452;28;20164;-77
2022/01/13 06:32:56;;;;;;;109.75;23.50;;;;;;;1.00;99.92;104108.03;5083650;28;20017;-77
2022/01/13 06:35:21;;;;;;;116.32;23.70;;;;;;;1.03;99.60;104105.84;5078887;28;20292;-77
2022/01/13 06:37:46;;;;;;;107.07;22.65;;;;;;;1.03;99.29;104103.28;5078805;28;20054;-77
2022/01/13 06:40:12;;;;;;;132.90;23.95;;;;;;;1.03;99.92;104104.19;5084076;28;20017;-77
2022/01/13 06:42:38;;;;;;;118.05;21.58;;;;;;;1.03;99.60;104105.84;5085501;28;20254;-77
2022/01/13 06:45:05;;;;;;;100.03;21.15;;;;;;;1.02;100.00;104104.00;5078382;28;20004;-78
2022/01/13 06:47:30;;;;;;;118.30;23.20;;;;;;;1.01;99.79;104107.31;5084869;28;20016;-77
2022/01/13 06:49:56;;;;;;;107.88;22.25;;;;;;;1.00;100.00;104101.28;5090588;28;20031;-77
2022/01/13 06:52:21;;;;;;;115.30;21.80;;;;;;;1.02;99.65;104106.59;5085410;28;20048;-77
2022/01/13 06:54:47;;;;;;;128.63;22.48;;;;;;;1.00;99.92;104106.41;5078995;28;20016;-78
2022/01/13 06:57:12;;;;;;;117.80;22.48;;;;;;;0.99;100.00;104111.38;5085218;28;20024;-78
2022/01/13 06:59:37;;;;;;;106.13;20.80;;;;;;;1.00;99.96;104115.75;5083799;28;20259;-77
2022/01/13 07:02:03;;;;;;;118.65;22.23;;;;;;;1.01;100.00;104110.81;5083321;28;20167;-77
2022/01/13 07:04:29;;;;;;;108.88;20.52;;;;;;;1.01;100.00;104113.38;5084023;28;20025;-77
2022/01/13 07:06:55;;;;;;;113.93;22.20;;;;;;;1.01;99.97;104102.19;5075565;28;21055;-77
2022/01/13 07:09:21;;;;;;;101.75;19.42;;;;;;;1.02;100.00;104106.59;5076122;28;20045;-77
2022/01/13 07:11:54;;;;;;;118.03;21.70;;;;;;;1.00;100.00;104102.91;5085831;28;20084;-78
2022/01/13 07:14:19;;;;;;;96.38;21.33;;;;;;;1.00;100.00;104103.84;5083923;28;20016;-77
2022/01/13 07:16:45;;;;;;;93.75;21.58;;;;;;;1.00;100.00;104103.84;5075572;28;20131;-77
2022/01/13 07:19:13;;;;;;;104.63;21.50;;;;;;;0.99;100.00;104109.69;5080866;28;20269;-78
2022/01/13 07:21:44;;;;;;;93.65;20.63;;;;;;;0.99;100.00;104112.28;5082276;28;20066;-77
2022/01/13 07:24:09;;;;;;;116.15;21.83;;;;;;;0.97;100.00;104105.13;5084817;28;20031;-77
2022/01/13 07:26:35;;;;;;;104.30;22.35;;;;;;;0.99;100.00;104116.50;5077725;28;20323;-78
2022/01/13 07:29:00;;;;;;;116.55;22.05;;;;;;;1.01;100.00;104117.56;5080485;28;20017;-77
2022/01/13 07:31:27;;;;;;;97.28;21.13;;;;;;;1.01;100.00;104112.44;5081269;28;20009;-78
2022/01/13 07:33:53;;;;;;;89.28;19.77;;;;;;;1.02;100.00;104115.19;5085480;28;20058;-78
2022/01/13 07:36:18;;;;;;;104.43;21.13;;;;;;;1.03;100.00;104105.84;5082744;28;20092;-78
2022/01/13 07:38:44;;;;;;;84.88;20.52;;;;;;;1.04;100.00;104107.66;5070427;28;20036;-78
2022/01/13 07:41:09;;;;;;;93.55;20.25;;;;;;;1.03;100.00;104100.72;5084704;28;20016;-78
2022/01/13 07:43:35;;;;;;;109.50;20.13;;;;;;;1.03;100.00;104106.75;5082327;28;20110;-78
2022/01/13 07:46:00;;;;;;;101.05;21.00;;;;;;;1.04;100.00;104112.78;5081357;28;20204;-78
2022/01/13 07:48:25;;;;;;;97.22;21.42;;;;;;;1.04;100.00;104110.22;5083194;28;20024;-77
2022/01/13 07:50:52;;;;;;;104.15;20.65;;;;;;;1.05;100.00;104119.78;5096010;28;20069;-78
2022/01/13 07:53:19;;;;;;;90.95;20.15;;;;;;;1.06;100.00;104118.09;5084537;28;20032;-77
2022/01/13 07:55:44;;;;;;;100.22;19.95;;;;;;;1.07;100.00;104113.13;5082688;28;20024;-77
2022/01/13 07:58:10;;;;;;;96.03;20.85;;;;;;;1.10;100.00;104120.28;5077297;28;20020;-78
2022/01/13 08:00:36;;;;;;;95.35;20.23;;;;;;;1.12;100.00;104124.88;5082132;28;20036;-78
2022/01/13 08:03:01;;;;;;;93.80;19.45;;;;;;;1.13;100.00;104118.06;5079066;28;20008;-78
2022/01/13 08:05:27;;;;;;;92.88;21.00;;;;;;;1.15;100.00;104119.19;5079590;28;20048;-77
2022/01/13 08:07:52;;;;;;;78.30;19.38;;;;;;;1.16;100.00;104126.13;5080956;28;20051;-77
2022/01/13 08:10:34;;;;;;;85.13;20.52;;;;;;;1.18;100.00;104119.53;5079089;28;20047;-77
2022/01/13 08:13:23;;;;;;;91.72;21.02;;;;;;;1.20;100.00;104124.09;5080368;28;20044;-77
2022/01/13 08:16:10;;;;;;;79.18;19.02;;;;;;;1.21;100.00;104133.63;5078019;28;20032;-77
2022/01/13 08:21:22;;;;;;;91.95;19.65;;;;;;;1.25;100.00;104131.44;5075734;28;20039;-77
2022/01/13 08:23:49;;;;;;;96.68;20.67;;;;;;;1.27;100.00;104132.50;5067208;28;20207;-77
2022/01/13 08:26:15;;;;;;;77.43;19.40;;;;;;;1.28;100.00;104134.34;5076621;28;20310;-77
2022/01/13 08:28:41;;;;;;;85.53;20.33;;;;;;;1.28;100.00;104139.50;5080569;28;20042;-77
2022/01/13 08:31:06;;;;;;;90.63;20.17;;;;;;;1.28;100.00;104139.50;5083174;28;20028;-77
2022/01/13 08:33:32;;;;;;;80.57;19.17;;;;;;;1.28;100.00;104142.06;5080489;28;20024;-77
2022/01/13 08:35:57;;;;;;;79.93;18.92;;;;;;;1.28;100.00;104142.06;5080263;28;20199;-78
2022/01/13 08:38:24;;;;;;;84.50;20.30;;;;;;;1.29;100.00;104143.88;5074113;28;20012;-77
2022/01/13 08:40:53;;;;;;;108.32;20.35;;;;;;;1.28;100.00;104140.41;5069479;28;20024;-78
2022/01/13 08:43:19;;;;;;;94.47;19.88;;;;;;;1.30;100.00;104148.28;5067817;28;20020;-78
2022/01/13 08:45:45;;;;;;;83.38;20.33;;;;;;;1.30;100.00;104145.69;5070254;28;20164;-77
2022/01/13 08:48:11;;;;;;;79.80;20.08;;;;;;;1.33;100.00;104151.19;5067786;28;20107;-77
2022/01/13 08:50:36;;;;;;;96.80;20.38;;;;;;;1.34;100.00;104156.50;5068624;28;20029;-78
2022/01/13 08:53:02;;;;;;;88.55;19.98;;;;;;;1.34;100.00;104153.03;5069612;28;20175;-77
2022/01/13 08:55:27;;;;;;;95.65;21.42;;;;;;;1.36;100.00;104161.81;5070995;28;20020;-77
2022/01/13 08:57:53;;;;;;;88.28;21.05;;;;;;;1.36;100.00;104151.53;5074250;28;20025;-77
2022/01/13 09:00:18;;;;;;;93.22;20.50;;;;;;;1.38;100.00;104163.81;5074102;28;20048;-81
2022/01/13 09:02:44;;;;;;;90.70;20.83;;;;;;;1.38;100.00;104158.69;5073019;28;20024;-77
2022/01/13 09:05:12;;;;;;;83.25;20.08;;;;;;;1.41;100.00;104167.50;5075850;28;20039;-77
2022/01/13 09:07:38;;;;;;;89.00;20.55;;;;;;;1.42;100.00;104159.97;5074933;28;20020;-78
2022/01/13 09:10:05;;;;;;;82.20;21.05;;;;;;;1.45;100.00;104168.03;5078461;28;20059;-78
2022/01/13 09:12:30;;;;;;;106.07;20.67;;;;;;;1.46;100.00;104161.22;5067761;28;20105;-78
2022/01/13 09:15:02;;;;;;;98.93;20.58;;;;;;;1.46;100.00;104166.34;5075316;28;20210;-78
2022/01/13 09:17:27;;;;;;;80.50;20.25;;;;;;;1.46;100.00;104162.13;5083786;28;20030;-77
2022/01/13 09:19:52;;;;;;;90.50;22.50;;;;;;;1.48;100.00;104165.81;5073176;28;20016;-77
2022/01/13 09:22:19;;;;;;;90.43;21.17;;;;;;;1.49;100.00;104165.06;5078572;28;20013;-77
2022/01/13 09:24:44;;;;;;;86.63;20.45;;;;;;;1.50;100.00;104168.53;5076106;28;20031;-78
2022/01/13 09:27:10;;;;;;;94.40;21.45;;;;;;;1.51;100.00;104171.28;5077913;28;20024;-78
2022/01/13 09:29:35;;;;;;;88.85;21.40;;;;;;;1.53;100.00;104174.94;5076749;28;20016;-78
2022/01/13 09:32:01;;;;;;;100.55;21.02;;;;;;;1.54;100.00;104175.88;5083065;28;20054;-78
2022/01/13 09:34:27;;;;;;;97.38;22.15;;;;;;;1.55;100.00;104170.91;5078069;28;20079;-77
2022/01/13 09:36:52;;;;;;;95.35;20.50;;;;;;;1.59;100.00;104174.72;5075407;28;20171;-78
2022/01/13 09:39:17;;;;;;;107.00;21.48;;;;;;;1.59;100.00;104178.97;5077512;28;20134;-78
2022/01/13 09:41:44;;;;;;;86.65;20.80;;;;;;;1.59;100.00;104171.25;5071248;28;20040;-78
2022/01/13 09:44:13;;;;;;;97.43;21.00;;;;;;;1.59;100.00;104163.53;5078849;28;20043;-78
2022/01/13 09:46:38;;;;;;;84.82;19.83;;;;;;;1.61;100.00;104168.13;5074192;28;20057;-77
2022/01/13 09:49:05;;;;;;;118.28;21.58;;;;;;;1.60;100.00;104166.28;5065186;28;20076;-77
2022/01/13 09:51:35;;;;;;;93.97;20.67;;;;;;;1.60;100.00;104173.09;5080377;28;20179;-78
2022/01/13 09:54:02;;;;;;;99.00;20.33;;;;;;;1.61;100.00;104173.25;5068291;28;20063;-77
2022/01/13 09:56:28;;;;;;;93.80;21.08;;;;;;;1.61;100.00;104174.88;5078270;28;20068;-78
2022/01/13 09:58:53;;;;;;;82.90;19.38;;;;;;;1.62;100.00;104176.72;5072394;28;20285;-68
2022/01/13 10:01:19;;;;;;;101.22;22.55;;;;;;;1.63;100.00;104176.00;5072412;28;20014;-68
2022/01/13 10:03:44;;;;;;;89.25;19.45;;;;;;;1.64;100.00;104173.59;5073133;28;20025;-68
2022/01/13 10:06:19;;;;;;;96.40;20.98;;;;;;;1.65;100.00;104179.66;5075826;28;20028;-68
2022/01/13 10:08:50;;;;;;;89.07;19.58;;;;;;;1.67;100.00;104180.75;5072274;28;20032;-68
2022/01/13 10:11:53;;;;;;;92.47;20.75;;;;;;;1.67;100.00;104178.19;5068806;28;20028;-68
2022/01/13 10:16:58;;;;;;;78.72;17.42;;;;;;;1.68;100.00;104177.41;5062488;28;20056;-68
2022/01/13 10:19:28;;;;;;;96.68;19.67;;;;;;;1.67;100.00;104176.53;5070466;28;20259;-68
2022/01/13 10:21:55;;;;;;;83.90;20.02;;;;;;;1.69;100.00;104182.72;5074769;28;20111;-68
2022/01/13 10:24:24;;;;;;;89.50;18.33;;;;;;;1.69;100.00;104181.84;5072447;28;20079;-68
2022/01/13 10:27:00;;;;;;;110.53;20.98;;;;;;;1.71;100.00;104177.78;5068010;28;20032;-68
2022/01/13 10:29:48;;;;;;;78.53;20.13;;;;;;;1.72;100.00;104171.88;5074357;28;20024;-68
2022/01/13 10:32:16;;;;;;;89.13;19.23;;;;;;;1.72;100.00;104170.25;5076407;28;20070;-68
2022/01/13 10:34:44;;;;;;;91.57;20.20;;;;;;;1.73;100.00;104176.31;5072462;28;20152;-68
2022/01/13 10:37:19;;;;;;;87.40;19.90;;;;;;;1.74;100.00;104175.56;5067568;28;20017;-68
2022/01/13 10:40:00;;;;;;;84.93;19.73;;;;;;;1.74;100.00;104186.75;5079261;28;20029;-68
2022/01/13 10:45:08;;;;;;;79.32;19.13;;;;;;;1.76;100.00;104179.22;5078766;28;20025;-68
2022/01/13 10:47:34;;;;;;;91.25;19.25;;;;;;;1.78;100.00;104171.69;5076436;28;20227;-68
2022/01/13 10:50:06;;;;;;;89.28;19.63;;;;;;;1.82;100.00;104171.28;5076956;28;20020;-75
2022/01/13 10:52:32;;;;;;;79.70;19.88;;;;;;;1.84;100.00;104167.22;5072694;28;20025;-75
2022/01/13 10:55:08;;;;;;;97.32;21.65;;;;;;;1.85;100.00;104169.06;5075323;28;20016;-78
2022/01/13 10:57:34;;;;;;;80.32;19.35;;;;;;;1.85;100.00;104164.81;5075505;28;20123;-74
2022/01/13 11:00:00;;;;;;;96.13;20.42;;;;;;;1.87;100.00;104162.44;5079707;28;20043;-74
2022/01/13 11:02:26;;;;;;;90.93;20.60;;;;;;;1.88;100.00;104157.47;5078138;28;20043;-74
2022/01/13 11:04:53;;;;;;;97.07;20.90;;;;;;;1.89;100.00;104153.25;5072767;28;20028;-74
2022/01/13 11:07:24;;;;;;;185.90;50.13;;;;;;;1.88;100.00;104144.63;5085100;28;20107;-75
2022/01/13 11:09:55;;;;;;;97.50;22.50;;;;;;;1.89;100.00;104143.84;5071706;28;20044;-74
2022/01/13 11:12:39;;;;;;;173.40;42.58;;;;;;;1.94;100.00;104153.75;5076951;28;20182;-74
2022/01/13 11:15:13;;;;;;;119.10;30.38;;;;;;;1.96;100.00;104147.13;5078347;28;20017;-74
2022/01/13 11:17:39;;;;;;;92.00;22.27;;;;;;;1.97;100.00;104143.81;5077164;28;20021;-74
2022/01/13 11:20:08;;;;;;;91.13;23.38;;;;;;;1.94;100.00;104136.69;5074987;28;20063;-74
2022/01/13 11:22:40;;;;;;;97.30;25.08;;;;;;;1.96;100.00;104142.00;5084091;28;20031;-75
2022/01/13 11:25:09;;;;;;;94.20;21.33;;;;;;;1.97;100.00;104131.88;5080819;28;20009;-74
2022/01/13 11:27:35;;;;;;;81.50;18.40;;;;;;;1.97;100.00;104129.31;5082862;28;20024;-74
2022/01/13 11:30:02;;;;;;;75.20;19.63;;;;;;;2.00;100.00;104133.84;5083017;28;20027;-74
2022/01/13 11:32:28;;;;;;;74.85;18.65;;;;;;;1.99;100.00;104129.47;5067862;28;20019;-74
2022/01/13 11:34:58;;;;;;;89.25;20.98;;;;;;;1.99;100.00;104126.91;5068792;28;20012;-74
2022/01/13 11:37:27;;;;;;;;;;;;;;;2.01;100.00;104123.72;5079970;28;20029;-74
2022/01/13 11:39:52;;;;;;;79.68;20.02;;;;;;;1.99;100.00;104132.03;5071092;28;20101;-74
2022/01/13 11:42:18;;;;;;;77.82;19.17;;;;;;;2.00;100.00;104123.56;5079795;28;20243;-74
2022/01/13 11:44:44;;;;;;;89.03;20.60;;;;;;;2.02;100.00;104132.38;5082936;28;20229;-74
2022/01/13 11:47:23;;;;;;;85.75;19.95;;;;;;;2.04;100.00;104126.69;5077775;28;20059;-74